Time;durP1;ratioP1;P1;durP2;ratioP2;P2;SDS_P1;SDS_P2;PMS_P1;PMS_P2;Temp;Humidity;BMP_temperature;BMP_pressure;BME280_temperature;BME280_humidity;BME280_pressure;Samples;Min_cycle;Max_cycle;Signal;HPM_P1;HPM_P2
2022/01/10 00:00:20;;;;;;;2.38;0.90;;;2.30;99.90;;;;;;5015115;28;20045;-85
2022/01/10 00:02:49;;;;;;;0.50;0.50;;;2.40;99.90;;;;;;5031353;28;20034;-84
2022/01/10 00:05:15;;;;;;;0.43;0.43;;;2.30;99.90;;;;;;5014809;28;20042;-85
2022/01/10 00:07:55;;;;;;;0.40;0.40;;;2.30;99.90;;;;;;5047443;28;20045;-84
2022/01/10 00:10:21;;;;;;;0.63;0.63;;;2.20;99.90;;;;;;5031521;28;20540;-85
2022/01/10 00:12:47;;;;;;;0.45;0.45;;;2.20;99.90;;;;;;5031543;28;20041;-84
2022/01/10 00:15:16;;;;;;;0.40;0.40;;;2.20;99.90;;;;;;5015111;28;20580;-84
2022/01/10 00:17:45;;;;;;;0.80;0.80;;;2.20;99.90;;;;;;5018486;28;20045;-85
2022/01/10 00:20:14;;;;;;;0.47;0.47;;;2.10;99.90;;;;;;5031195;28;20029;-84
2022/01/10 00:22:45;;;;;;;2.33;1.30;;;2.10;99.90;;;;;;5030830;28;20025;-85
2022/01/10 00:25:11;;;;;;;0.82;0.82;;;2.50;99.90;;;;;;5014814;28;20033;-85
2022/01/10 00:27:36;;;;;;;0.40;0.40;;;2.00;99.90;;;;;;5030432;28;20044;-85
2022/01/10 00:30:03;;;;;;;0.60;0.60;;;1.90;99.90;;;;;;5030567;28;20099;-85
2022/01/10 00:32:30;;;;;;;0.30;0.30;;;1.90;99.90;;;;;;5030545;28;20056;-85
2022/01/10 00:34:55;;;;;;;0.40;0.40;;;2.00;99.90;;;;;;5014297;28;20033;-84
2022/01/10 00:37:21;;;;;;;0.40;0.40;;;1.80;99.90;;;;;;5014323;28;20071;-85
2022/01/10 00:39:48;;;;;;;1.10;0.65;;;1.80;99.90;;;;;;5015113;28;20034;-85
2022/01/10 00:42:14;;;;;;;0.50;0.50;;;2.10;99.90;;;;;;5018262;28;20041;-86
2022/01/10 00:44:50;;;;;;;1.35;1.25;;;1.70;99.90;;;;;;5018188;28;20152;-85
2022/01/10 00:47:16;;;;;;;0.50;0.50;;;1.70;99.90;;;;;;5018090;28;20128;-84
2022/01/10 00:49:42;;;;;;;0.45;0.45;;;1.70;99.90;;;;;;5018147;28;20052;-85
2022/01/10 00:52:07;;;;;;;1.38;1.15;;;1.70;99.90;;;;;;5034509;28;20465;-85
2022/01/10 00:54:33;;;;;;;0.40;0.40;;;1.60;99.90;;;;;;5025797;28;20041;-85
2022/01/10 00:56:58;;;;;;;0.77;0.77;;;1.60;99.90;;;;;;5031787;28;20095;-84
2022/01/10 00:59:24;;;;;;;0.35;0.35;;;1.50;99.90;;;;;;5014823;28;20034;-85
2022/01/10 01:01:49;;;;;;;0.63;0.63;;;1.50;99.90;;;;;;5031244;28;20044;-84
2022/01/10 01:04:15;;;;;;;1.02;0.65;;;1.40;99.90;;;;;;5018041;28;20045;-85
2022/01/10 01:06:41;;;;;;;0.63;0.63;;;1.40;99.90;;;;;;5009963;28;20033;-85
2022/01/10 01:09:09;;;;;;;0.50;0.50;;;1.40;99.90;;;;;;5033576;28;20053;-85
2022/01/10 01:12:09;;;;;;;3.13;1.80;;;1.40;99.90;;;;;;5017629;28;20517;-84
2022/01/10 01:25:06;;;;;;;0.73;0.73;;;1.30;99.90;;;;;;5025553;28;20136;-85
2022/01/10 01:27:32;;;;;;;0.30;0.30;;;1.30;99.90;;;;;;5033568;28;20391;-85
2022/01/10 01:29:57;;;;;;;0.40;0.40;;;1.30;99.90;;;;;;5033997;28;20048;-85
2022/01/10 01:32:23;;;;;;;0.70;0.68;;;1.20;99.90;;;;;;5033985;28;20053;-85
2022/01/10 01:34:49;;;;;;;0.30;0.30;;;1.20;99.90;;;;;;5017463;28;20044;-85
2022/01/10 01:37:15;;;;;;;0.45;0.45;;;1.10;99.90;;;;;;5016721;28;20045;-84
2022/01/10 01:39:41;;;;;;;4.15;2.85;;;1.00;99.90;;;;;;5033773;28;20034;-85
2022/01/10 01:42:30;;;;;;;0.40;0.40;;;0.90;99.90;;;;;;5017123;28;20041;-84
2022/01/10 01:44:52;;;;;;;0.43;0.43;;;0.90;99.90;;;;;;5033303;28;20088;-85
2022/01/10 01:47:18;;;;;;;0.55;0.55;;;0.90;99.90;;;;;;4997066;28;20419;-85
2022/01/10 01:49:43;;;;;;;1.02;0.95;;;0.80;99.90;;;;;;4997783;28;20073;-85
2022/01/10 01:52:09;;;;;;;0.40;0.40;;;0.80;99.90;;;;;;4996600;28;20052;-85
2022/01/10 01:54:35;;;;;;;0.40;0.40;;;0.80;99.90;;;;;;5008389;28;20044;-84
2022/01/10 01:57:01;;;;;;;2.28;1.55;;;0.70;99.90;;;;;;5033078;28;20040;-85
2022/01/10 01:59:26;;;;;;;0.85;0.85;;;0.70;99.90;;;;;;5033180;28;20033;-85
2022/01/10 02:01:52;;;;;;;4.43;4.00;;;0.70;99.90;;;;;;5000724;28;20087;-85
2022/01/10 02:04:17;;;;;;;1.02;0.93;;;0.60;99.90;;;;;;4997255;28;20041;-85
2022/01/10 02:07:32;;;;;;;0.28;0.28;;;0.60;99.90;;;;;;4998359;28;20042;-85
2022/01/10 02:09:57;;;;;;;0.40;0.40;;;0.60;99.90;;;;;;5012297;28;20049;-85
2022/01/10 02:12:23;;;;;;;0.50;0.50;;;0.60;99.90;;;;;;5013683;28;20408;-84
2022/01/10 02:14:49;;;;;;;1.10;0.98;;;0.50;99.90;;;;;;5013507;28;20046;-84
2022/01/10 02:17:19;;;;;;;0.50;0.50;;;0.50;99.90;;;;;;5012701;28;20407;-84
2022/01/10 02:19:58;;;;;;;0.75;0.65;;;0.50;99.90;;;;;;5013189;28;20044;-85
2022/01/10 02:22:23;;;;;;;0.50;0.50;;;0.50;99.90;;;;;;5013073;28;20033;-85
2022/01/10 02:24:49;;;;;;;2.60;1.95;;;0.50;99.90;;;;;;5013394;28;20133;-84
2022/01/10 02:27:15;;;;;;;0.43;0.43;;;0.40;99.90;;;;;;5012693;28;20411;-85
2022/01/10 02:29:40;;;;;;;0.50;0.50;;;0.40;99.90;;;;;;5013350;28;20586;-85
2022/01/10 02:32:06;;;;;;;2.03;1.85;;;0.30;99.90;;;;;;5013171;28;20052;-85
2022/01/10 02:34:32;;;;;;;0.50;0.50;;;0.30;99.90;;;;;;5029353;28;20400;-85
2022/01/10 02:37:00;;;;;;;0.30;0.30;;;0.30;99.90;;;;;;5012545;28;20091;-85
2022/01/10 02:39:26;;;;;;;0.40;0.40;;;0.30;99.90;;;;;;5012954;28;20043;-85
2022/01/10 02:41:51;;;;;;;1.20;1.10;;;0.30;99.90;;;;;;5012910;28;20034;-85
2022/01/10 02:44:18;;;;;;;5.88;1.30;;;0.90;99.90;;;;;;5012885;28;20048;-85
2022/01/10 02:46:45;;;;;;;1.38;1.27;;;0.30;99.90;;;;;;5028716;28;20376;-85
2022/01/10 02:49:28;;;;;;;0.40;0.40;;;0.30;99.90;;;;;;5012938;28;20038;-84
2022/01/10 02:51:56;;;;;;;0.77;0.75;;;0.20;99.90;;;;;;5029191;28;20041;-84
2022/01/10 02:54:23;;;;;;;0.82;0.63;;;0.20;99.90;;;;;;5015665;28;20034;-84
2022/01/10 02:56:52;;;;;;;5.80;1.13;;;0.30;99.90;;;;;;5015351;28;20037;-84
2022/01/10 02:59:19;;;;;;;1.23;1.17;;;0.20;99.90;;;;;;5016142;28;20037;-84
2022/01/10 03:01:45;;;;;;;0.80;0.80;;;0.20;99.90;;;;;;5032206;28;20380;-84
2022/01/10 03:04:11;;;;;;;5.78;3.80;;;0.20;99.90;;;;;;5015839;28;20442;-85
2022/01/10 03:06:38;;;;;;;4.03;1.02;;;0.30;99.90;;;;;;5015395;28;20501;-85
2022/01/10 03:09:06;;;;;;;1.65;1.55;;;0.30;99.90;;;;;;5015944;28;20132;-84
2022/01/10 03:11:32;;;;;;;0.63;0.60;;;0.40;99.90;;;;;;5015922;28;20076;-84
2022/01/10 03:13:59;;;;;;;0.40;0.40;;;0.30;99.90;;;;;;5015923;28;20056;-84
2022/01/10 03:16:24;;;;;;;1.65;1.35;;;0.30;99.90;;;;;;5015188;28;20041;-84
2022/01/10 03:18:50;;;;;;;0.32;0.32;;;0.30;99.90;;;;;;5015527;28;20047;-85
2022/01/10 03:21:19;;;;;;;0.50;0.50;;;0.30;99.90;;;;;;5015661;28;20042;-84
2022/01/10 03:23:45;;;;;;;0.80;0.73;;;0.30;99.90;;;;;;5031909;28;20037;-84
2022/01/10 03:26:11;;;;;;;0.50;0.50;;;0.30;99.90;;;;;;5015365;28;20045;-84
2022/01/10 03:28:37;;;;;;;0.40;0.40;;;0.30;99.90;;;;;;5015615;28;20411;-84
2022/01/10 03:31:02;;;;;;;4.15;1.50;;;0.20;99.90;;;;;;5015480;28;20037;-84
2022/01/10 03:33:28;;;;;;;0.75;0.70;;;0.10;99.90;;;;;;5031603;28;20041;-84
2022/01/10 03:35:54;;;;;;;0.40;0.40;;;0.10;99.90;;;;;;5015384;28;20073;-84
2022/01/10 03:38:20;;;;;;;1.48;0.93;;;0.00;99.90;;;;;;5015217;28;20403;-84
2022/01/10 03:40:46;;;;;;;0.63;0.63;;;0.00;99.90;;;;;;5015291;28;20041;-84
2022/01/10 03:43:11;;;;;;;0.50;0.50;;;0.00;99.90;;;;;;5015187;28;20037;-84
2022/01/10 03:45:37;;;;;;;0.43;0.43;;;0.00;99.90;;;;;;5015454;28;20108;-84
2022/01/10 03:48:03;;;;;;;0.43;0.43;;;-0.10;99.90;;;;;;5014875;28;20120;-84
2022/01/10 03:50:29;;;;;;;0.40;0.40;;;0.00;99.90;;;;;;5015440;28;20416;-84
2022/01/10 03:52:54;;;;;;;1.02;0.93;;;0.00;99.90;;;;;;5015102;28;20095;-84
2022/01/10 03:55:20;;;;;;;0.63;0.63;;;0.00;99.90;;;;;;5031597;28;20080;-84
2022/01/10 03:57:45;;;;;;;0.50;0.50;;;-0.10;99.90;;;;;;5014745;28;20041;-84
2022/01/10 04:00:13;;;;;;;0.60;0.60;;;-0.10;99.90;;;;;;5015123;28;20103;-84
2022/01/10 04:02:40;;;;;;;1.38;1.27;;;-0.10;99.90;;;;;;5014889;28;20061;-84
2022/01/10 04:05:06;;;;;;;1.60;1.50;;;0.00;99.90;;;;;;5015155;28;20124;-84
2022/01/10 04:07:32;;;;;;;0.40;0.40;;;0.00;99.90;;;;;;5015031;28;20080;-85
2022/01/10 04:09:57;;;;;;;1.95;0.95;;;0.00;99.90;;;;;;5015109;28;20044;-84
2022/01/10 04:12:24;;;;;;;0.70;0.70;;;0.00;99.90;;;;;;5015030;28;20052;-84
2022/01/10 04:14:50;;;;;;;0.40;0.40;;;0.00;99.90;;;;;;5031699;28;20589;-84
2022/01/10 04:17:16;;;;;;;0.65;0.47;;;-0.10;99.90;;;;;;5018265;28;20042;-84
2022/01/10 04:19:42;;;;;;;0.30;0.30;;;-0.10;99.90;;;;;;5035357;28;20521;-84
2022/01/10 04:22:08;;;;;;;0.40;0.40;;;-0.10;99.90;;;;;;5018632;28;20045;-84
2022/01/10 04:24:34;;;;;;;0.40;0.40;;;-0.10;99.90;;;;;;5018749;28;20052;-84
2022/01/10 04:27:00;;;;;;;1.17;1.08;;;-0.10;99.90;;;;;;5018272;28;20049;-84
2022/01/10 04:29:25;;;;;;;0.75;0.75;;;-0.20;99.90;;;;;;5018706;28;20132;-84
2022/01/10 04:31:51;;;;;;;0.50;0.50;;;-0.20;99.90;;;;;;5034991;28;20080;-84
2022/01/10 04:34:17;;;;;;;1.20;1.10;;;-0.30;99.90;;;;;;5034975;28;20034;-84
2022/01/10 04:36:43;;;;;;;0.43;0.43;;;-0.30;99.90;;;;;;5018173;28;20045;-84
2022/01/10 04:39:09;;;;;;;0.40;0.40;;;-0.40;99.90;;;;;;5018507;28;20038;-84
2022/01/10 04:41:37;;;;;;;0.40;0.40;;;-0.40;99.90;;;;;;5018615;28;20513;-84
2022/01/10 04:44:03;;;;;;;0.70;0.68;;;-0.40;99.90;;;;;;5018357;28;20080;-84
2022/01/10 04:46:29;;;;;;;0.60;0.60;;;-0.40;99.90;;;;;;5018457;28;20037;-84
2022/01/10 04:48:54;;;;;;;2.20;0.82;;;-0.50;99.90;;;;;;5018374;28;20041;-84
2022/01/10 04:51:20;;;;;;;0.43;0.43;;;-0.50;99.90;;;;;;5018235;28;20038;-84
2022/01/10 04:53:50;;;;;;;0.40;0.40;;;-0.50;99.90;;;;;;5018481;28;20498;-84
2022/01/10 04:56:27;;;;;;;0.50;0.50;;;-0.50;99.90;;;;;;5017874;28;20139;-84
2022/01/10 04:58:52;;;;;;;1.45;1.33;;;-0.50;99.90;;;;;;5018184;28;20037;-84
2022/01/10 05:01:18;;;;;;;1.23;0.98;;;-0.40;99.90;;;;;;5017754;28;20041;-84
2022/01/10 05:03:44;;;;;;;0.30;0.30;;;-0.40;99.90;;;;;;5010096;28;20047;-84
2022/01/10 05:06:10;;;;;;;0.50;0.50;;;-0.40;99.90;;;;;;5016808;28;20040;-84
2022/01/10 05:08:35;;;;;;;0.85;0.85;;;-0.30;99.90;;;;;;5017585;28;20490;-84
2022/01/10 05:11:01;;;;;;;0.80;0.80;;;-0.40;99.90;;;;;;5017495;28;20044;-84
2022/01/10 05:13:27;;;;;;;1.00;0.95;;;-0.30;99.90;;;;;;5016937;28;20080;-85
2022/01/10 05:15:53;;;;;;;0.50;0.50;;;-0.20;99.90;;;;;;5017197;28;20073;-85
2022/01/10 05:18:20;;;;;;;2.90;2.08;;;-0.10;99.90;;;;;;5033397;28;20091;-84
2022/01/10 05:20:46;;;;;;;0.70;0.70;;;-0.10;99.90;;;;;;5017160;28;20060;-86
2022/01/10 05:23:12;;;;;;;0.73;0.63;;;-0.10;99.90;;;;;;5016870;28;20033;-85
2022/01/10 05:25:39;;;;;;;2.47;1.80;;;-0.10;99.90;;;;;;5016854;28;20041;-84
2022/01/10 05:28:09;;;;;;;0.40;0.40;;;-0.10;99.90;;;;;;5015179;28;20081;-85
2022/01/10 05:30:35;;;;;;;0.50;0.50;;;-0.10;99.90;;;;;;5028550;28;20528;-84
2022/01/10 05:33:01;;;;;;;0.45;0.45;;;-0.10;99.90;;;;;;5016644;28;20091;-84
2022/01/10 05:35:26;;;;;;;0.85;0.85;;;0.00;99.90;;;;;;5033383;28;20376;-84
2022/01/10 05:37:52;;;;;;;0.43;0.43;;;-0.10;99.90;;;;;;5016416;28;20103;-84
2022/01/10 05:40:19;;;;;;;0.40;0.40;;;-0.10;99.90;;;;;;5017008;28;20140;-84
2022/01/10 05:42:45;;;;;;;0.40;0.40;;;0.00;99.90;;;;;;5016490;28;20041;-85
2022/01/10 05:45:11;;;;;;;1.58;1.48;;;-0.10;99.90;;;;;;5016352;28;20127;-84
2022/01/10 05:47:41;;;;;;;4.20;1.27;;;-0.10;99.90;;;;;;5032072;28;20056;-84
2022/01/10 05:50:09;;;;;;;0.60;0.60;;;0.00;99.90;;;;;;5016442;28;20037;-84
2022/01/10 05:52:35;;;;;;;0.50;0.50;;;0.00;99.90;;;;;;5016322;28;20038;-84
2022/01/10 05:55:01;;;;;;;0.55;0.55;;;-0.10;99.90;;;;;;5016291;28;20494;-84
2022/01/10 05:57:26;;;;;;;0.40;0.40;;;-0.10;99.90;;;;;;4999386;28;20037;-84
2022/01/10 05:59:52;;;;;;;1.23;0.70;;;0.00;99.90;;;;;;5016613;28;20033;-84
2022/01/10 06:02:18;;;;;;;0.50;0.50;;;0.00;99.90;;;;;;5032769;28;20172;-84
2022/01/10 06:04:43;;;;;;;0.50;0.50;;;0.00;99.90;;;;;;5016084;28;20041;-84
2022/01/10 06:07:09;;;;;;;0.73;0.73;;;0.00;99.90;;;;;;5016217;28;20041;-84
2022/01/10 06:09:35;;;;;;;0.50;0.50;;;0.00;99.90;;;;;;5016035;28;20056;-84
2022/01/10 06:12:00;;;;;;;0.50;0.50;;;0.10;99.90;;;;;;5016026;28;20045;-84
2022/01/10 06:14:26;;;;;;;0.80;0.80;;;0.00;99.90;;;;;;5015954;28;20045;-84
2022/01/10 06:16:51;;;;;;;0.60;0.60;;;0.00;99.90;;;;;;5015361;28;20030;-84
2022/01/10 06:19:17;;;;;;;1.55;1.20;;;0.00;99.90;;;;;;5032747;28;20490;-84
2022/01/10 06:21:42;;;;;;;0.43;0.43;;;0.00;99.90;;;;;;5032323;28;20041;-85
2022/01/10 06:24:08;;;;;;;0.50;0.50;;;0.00;99.90;;;;;;5048962;28;20474;-84
2022/01/10 06:26:34;;;;;;;0.57;0.57;;;0.80;99.90;;;;;;5032174;28;20395;-84
2022/01/10 06:28:59;;;;;;;0.40;0.40;;;-0.10;99.90;;;;;;5032288;28;20099;-84
2022/01/10 06:31:25;;;;;;;0.50;0.50;;;-0.10;99.90;;;;;;5048705;28;20041;-84
2022/01/10 06:33:50;;;;;;;0.40;0.40;;;-0.10;99.90;;;;;;5015903;28;20045;-84
2022/01/10 06:36:16;;;;;;;1.20;1.10;;;-0.10;99.90;;;;;;5031595;28;20458;-84
2022/01/10 06:38:42;;;;;;;0.77;0.77;;;-0.10;99.90;;;;;;5031623;28;20045;-84
2022/01/10 06:41:08;;;;;;;1.67;1.58;;;-0.10;99.90;;;;;;5032720;28;20068;-84
2022/01/10 06:43:34;;;;;;;4.47;1.50;;;-0.10;99.90;;;;;;5015527;28;20087;-85
2022/01/10 06:46:00;;;;;;;0.40;0.40;;;-0.10;99.90;;;;;;5015665;28;20029;-84
2022/01/10 06:48:26;;;;;;;0.50;0.50;;;-0.10;99.90;;;;;;5014913;28;20095;-84
2022/01/10 06:50:51;;;;;;;0.80;0.80;;;-0.20;99.90;;;;;;5015346;28;20033;-83
2022/01/10 06:53:17;;;;;;;5.88;1.23;;;-0.20;99.90;;;;;;5015452;28;20048;-85
2022/01/10 06:55:43;;;;;;;0.50;0.50;;;-0.20;99.90;;;;;;5031710;28;20049;-84
2022/01/10 06:58:09;;;;;;;0.40;0.40;;;-0.10;99.90;;;;;;5014932;28;20033;-84
2022/01/10 07:00:36;;;;;;;1.77;1.67;;;-0.20;99.90;;;;;;5031604;28;20038;-84
2022/01/10 07:03:01;;;;;;;0.30;0.30;;;-0.20;99.90;;;;;;5015090;28;20464;-84
2022/01/10 07:05:28;;;;;;;0.55;0.55;;;-0.20;99.90;;;;;;5014887;28;20115;-84
2022/01/10 07:07:54;;;;;;;0.80;0.73;;;-0.30;99.90;;;;;;5014576;28;20125;-84
2022/01/10 07:10:20;;;;;;;0.35;0.35;;;-0.20;99.90;;;;;;5031424;28;20441;-84
2022/01/10 07:12:46;;;;;;;0.60;0.60;;;-0.30;99.90;;;;;;5031591;28;20049;-84
2022/01/10 07:15:12;;;;;;;0.70;0.70;;;-0.30;99.90;;;;;;5015088;28;20150;-84
2022/01/10 07:17:37;;;;;;;0.40;0.40;;;-0.30;99.90;;;;;;5014396;28;20091;-84
2022/01/10 07:20:03;;;;;;;0.93;0.88;;;-0.20;99.90;;;;;;5014968;28;20487;-84
2022/01/10 07:22:29;;;;;;;3.38;3.13;;;-0.40;99.90;;;;;;5014661;28;20064;-84
2022/01/10 07:24:55;;;;;;;0.47;0.47;;;-0.40;99.90;;;;;;5014933;28;20047;-84
2022/01/10 07:27:21;;;;;;;0.45;0.45;;;-0.40;99.90;;;;;;5030333;28;20060;-84
2022/01/10 07:29:49;;;;;;;0.45;0.45;;;-0.40;99.90;;;;;;5047769;28;20498;-84
2022/01/10 07:32:15;;;;;;;0.40;0.40;;;-0.40;99.90;;;;;;5014575;28;20045;-84
2022/01/10 07:34:41;;;;;;;0.50;0.50;;;-0.40;99.90;;;;;;5014616;28;20498;-84
2022/01/10 07:37:06;;;;;;;0.60;0.60;;;-0.50;99.90;;;;;;5013967;28;20045;-84
2022/01/10 07:39:32;;;;;;;0.95;0.95;;;-0.50;99.90;;;;;;5014038;28;20132;-84
2022/01/10 07:41:58;;;;;;;0.90;0.82;;;-0.60;99.90;;;;;;5030677;28;20136;-85
2022/01/10 07:44:24;;;;;;;0.60;0.60;;;-0.60;99.90;;;;;;5030592;28;20136;-84
2022/01/10 07:46:49;;;;;;;1.88;1.35;;;-0.60;99.90;;;;;;5030382;28;20568;-84
2022/01/10 07:49:15;;;;;;;3.13;2.92;;;-0.60;99.90;;;;;;5014020;28;20100;-84
2022/01/10 07:51:40;;;;;;;0.40;0.40;;;-0.60;99.90;;;;;;5050124;28;20045;-84
2022/01/10 07:54:06;;;;;;;2.00;1.17;;;-0.60;99.90;;;;;;5034721;28;20087;-84
2022/01/10 07:56:32;;;;;;;0.98;0.95;;;-0.60;99.90;;;;;;5017676;28;20107;-85
2022/01/10 07:58:58;;;;;;;2.28;1.38;;;-0.50;99.90;;;;;;5018469;28;20033;-83
2022/01/10 08:01:23;;;;;;;1.38;1.20;;;-0.60;99.90;;;;;;5018247;28;20087;-83
2022/01/10 08:03:50;;;;;;;1.58;0.90;;;-0.50;99.90;;;;;;5018309;28;20065;-83
2022/01/10 08:06:20;;;;;;;0.40;0.40;;;-0.50;99.90;;;;;;5050514;28;20045;-84
2022/01/10 08:08:45;;;;;;;0.70;0.70;;;-0.50;99.90;;;;;;5018234;28;20441;-84
2022/01/10 08:11:11;;;;;;;0.60;0.60;;;-0.50;99.90;;;;;;5018033;28;20092;-83
2022/01/10 08:13:37;;;;;;;0.63;0.63;;;-0.40;99.90;;;;;;5017624;28;20041;-84
2022/01/10 08:16:04;;;;;;;0.43;0.43;;;-0.40;99.90;;;;;;5018053;28;20096;-84
2022/01/10 08:18:31;;;;;;;5.68;4.88;;;-0.40;99.90;;;;;;5017927;28;20034;-84
2022/01/10 08:20:57;;;;;;;0.70;0.70;;;-0.40;99.90;;;;;;5018047;28;20044;-84
2022/01/10 08:23:23;;;;;;;1.45;1.35;;;-0.30;99.90;;;;;;5017978;28;20038;-83
2022/01/10 08:25:48;;;;;;;0.40;0.40;;;-0.30;99.90;;;;;;5034697;28;20037;-85
2022/01/10 08:28:14;;;;;;;0.70;0.70;;;-0.30;99.90;;;;;;5008247;28;20056;-86
2022/01/10 08:30:40;;;;;;;0.50;0.50;;;-0.30;99.90;;;;;;5020126;28;20045;-85
2022/01/10 08:33:06;;;;;;;0.40;0.40;;;-0.20;99.90;;;;;;5011358;28;20579;-84
2022/01/10 08:35:31;;;;;;;1.48;1.38;;;-0.20;99.90;;;;;;5029120;28;20125;-84
2022/01/10 08:37:57;;;;;;;0.80;0.77;;;-0.20;99.90;;;;;;4997181;28;20097;-84
2022/01/10 08:40:23;;;;;;;1.35;1.25;;;-0.20;99.90;;;;;;5033804;28;20407;-84
2022/01/10 08:42:49;;;;;;;0.50;0.50;;;-0.30;99.90;;;;;;5017627;28;20131;-84
2022/01/10 08:45:14;;;;;;;0.40;0.40;;;-0.20;99.90;;;;;;5034341;28;20116;-84
2022/01/10 08:47:40;;;;;;;0.50;0.50;;;-0.20;99.90;;;;;;5033754;28;20045;-84
2022/01/10 08:50:09;;;;;;;0.77;0.70;;;-0.20;99.90;;;;;;5015926;28;20529;-84
2022/01/10 08:52:34;;;;;;;0.93;0.93;;;-0.20;99.90;;;;;;5014488;28;20041;-84
2022/01/10 08:55:00;;;;;;;0.50;0.50;;;-0.10;99.90;;;;;;5014607;28;20462;-84
2022/01/10 08:57:26;;;;;;;2.25;2.05;;;-0.10;99.90;;;;;;5020116;28;20043;-84
2022/01/10 08:59:52;;;;;;;0.50;0.50;;;-0.10;99.90;;;;;;5033905;28;20072;-84
2022/01/10 09:02:17;;;;;;;1.20;1.10;;;0.00;99.90;;;;;;5032250;28;20033;-84
2022/01/10 09:04:43;;;;;;;0.50;0.50;;;0.00;99.90;;;;;;5010943;28;20037;-84
2022/01/10 09:07:09;;;;;;;0.40;0.40;;;0.00;99.90;;;;;;5049883;28;20388;-84
2022/01/10 09:09:37;;;;;;;0.40;0.40;;;0.00;99.90;;;;;;5017192;28;20041;-84
2022/01/10 09:12:03;;;;;;;0.60;0.60;;;0.10;99.90;;;;;;5033619;28;20045;-84
2022/01/10 09:14:29;;;;;;;0.50;0.50;;;0.10;99.90;;;;;;5016955;28;20796;-84
2022/01/10 09:16:55;;;;;;;1.05;0.98;;;0.10;99.90;;;;;;5016710;28;20045;-84
2022/01/10 09:19:32;;;;;;;0.47;0.45;;;0.20;99.90;;;;;;5009371;28;20060;-84
2022/01/10 09:21:58;;;;;;;0.50;0.50;;;0.20;99.90;;;;;;5022285;28;20049;-83
2022/01/10 09:24:23;;;;;;;0.40;0.40;;;0.30;99.90;;;;;;5007713;28;20576;-84
2022/01/10 09:26:49;;;;;;;0.30;0.30;;;0.30;99.90;;;;;;5011962;28;20044;-84
2022/01/10 09:30:08;;;;;;;0.40;0.40;;;0.40;99.90;;;;;;5016220;28;20041;-84
2022/01/10 09:32:53;;;;;;;0.40;0.40;;;0.40;99.90;;;;;;4997138;28;20048;-84
2022/01/10 09:35:20;;;;;;;0.65;0.65;;;0.40;99.90;;;;;;5015721;28;20081;-84
2022/01/10 09:37:45;;;;;;;0.52;0.52;;;0.50;99.90;;;;;;5015951;28;20087;-84
2022/01/10 09:40:11;;;;;;;0.75;0.75;;;0.60;99.90;;;;;;5033279;28;20038;-85
2022/01/10 09:42:38;;;;;;;1.63;1.52;;;0.60;99.90;;;;;;5011192;28;20522;-84
2022/01/10 09:45:05;;;;;;;4.07;1.42;;;0.60;99.90;;;;;;5022776;28;20069;-84
2022/01/10 09:47:31;;;;;;;0.40;0.40;;;0.70;99.90;;;;;;5016105;28;20056;-85
2022/01/10 09:49:57;;;;;;;0.40;0.40;;;0.70;99.90;;;;;;5016226;28;20049;-84
2022/01/10 09:53:05;;;;;;;0.50;0.50;;;0.80;99.90;;;;;;5016413;28;20140;-83
2022/01/10 09:55:33;;;;;;;0.60;0.60;;;0.80;99.90;;;;;;4996744;28;20045;-84
2022/01/10 09:57:58;;;;;;;0.50;0.50;;;0.90;99.90;;;;;;5004971;28;20140;-85
2022/01/10 10:00:24;;;;;;;0.40;0.40;;;0.90;99.90;;;;;;5016100;28;20038;-84
2022/01/10 10:02:51;;;;;;;0.50;0.50;;;1.00;99.90;;;;;;5032265;28;20041;-85
2022/01/10 10:05:19;;;;;;;0.68;0.65;;;1.00;99.90;;;;;;5032640;28;20128;-83
2022/01/10 10:07:53;;;;;;;0.82;0.82;;;1.10;99.90;;;;;;5029609;28;20455;-83
2022/01/10 10:10:49;;;;;;;0.88;0.88;;;1.10;99.90;;;;;;5014457;28;20041;-83
2022/01/10 10:13:21;;;;;;;17.33;15.88;;;1.20;99.90;;;;;;5015152;28;20046;-85
2022/01/10 10:15:48;;;;;;;0.40;0.40;;;1.30;99.90;;;;;;5016074;28;20434;-83
2022/01/10 10:18:16;;;;;;;2.65;2.45;;;1.30;99.90;;;;;;5031814;28;20576;-85
2022/01/10 10:20:56;;;;;;;0.45;0.45;;;1.40;99.90;;;;;;5015543;28;20038;-85
2022/01/10 10:23:22;;;;;;;2.28;1.08;;;1.40;99.90;;;;;;5015664;28;20037;-85
2022/01/10 10:25:55;;;;;;;0.40;0.40;;;1.50;99.90;;;;;;5015742;28;20601;-85
2022/01/10 10:28:38;;;;;;;2.60;2.38;;;1.60;99.90;;;;;;5016621;28;20065;-83
2022/01/10 10:31:05;;;;;;;0.40;0.40;;;1.60;99.90;;;;;;5016004;28;20402;-84
2022/01/10 10:33:31;;;;;;;1.17;1.08;;;1.70;99.90;;;;;;5015400;28;20038;-84
2022/01/10 10:36:03;;;;;;;1.63;1.50;;;1.70;99.90;;;;;;5032100;28;20552;-84
2022/01/10 10:38:29;;;;;;;0.60;0.60;;;1.70;99.90;;;;;;5015252;28;20107;-83
2022/01/10 10:41:03;;;;;;;0.30;0.30;;;1.70;99.90;;;;;;5048628;28;20495;-83
2022/01/10 10:43:33;;;;;;;0.40;0.40;;;1.70;99.90;;;;;;5015471;28;20048;-83
2022/01/10 10:46:15;;;;;;;0.40;0.40;;;1.60;99.90;;;;;;5015405;28;20095;-83
2022/01/10 10:48:43;;;;;;;0.40;0.40;;;1.60;99.90;;;;;;5015482;28;20116;-83
2022/01/10 10:51:09;;;;;;;0.60;0.60;;;1.60;99.90;;;;;;5015568;28;20033;-83
2022/01/10 10:53:36;;;;;;;0.50;0.50;;;1.60;99.90;;;;;;5012674;28;20029;-83
2022/01/10 10:56:04;;;;;;;0.57;0.57;;;1.60;99.90;;;;;;5014768;28;20037;-85
2022/01/10 10:58:34;;;;;;;27.50;2.28;;;1.70;99.90;;;;;;5015219;28;20044;-85
2022/01/10 11:01:02;;;;;;;0.85;0.85;;;1.80;99.90;;;;;;5015323;28;20442;-83
2022/01/10 11:03:28;;;;;;;0.40;0.40;;;1.90;99.90;;;;;;5031462;28;20097;-85
2022/01/10 11:06:20;;;;;;;0.50;0.50;;;2.00;99.90;;;;;;5031272;28;20080;-83
2022/01/10 11:08:46;;;;;;;0.60;0.60;;;2.10;99.90;;;;;;5031597;28;20041;-85
2022/01/10 11:11:21;;;;;;;0.95;0.93;;;2.20;99.90;;;;;;5032275;28;20026;-83
2022/01/10 11:13:49;;;;;;;0.30;0.30;;;2.20;99.90;;;;;;4995423;28;20038;-83
2022/01/10 11:16:16;;;;;;;0.73;0.73;;;2.40;99.90;;;;;;5013677;28;21436;-82
2022/01/10 11:18:42;;;;;;;3.78;2.00;;;2.40;99.90;;;;;;5031040;28;20037;-83
2022/01/10 11:21:08;;;;;;;0.57;0.52;;;2.50;99.90;;;;;;5031039;28;20033;-83
2022/01/10 11:23:45;;;;;;;5.15;2.33;;;2.60;99.90;;;;;;5014526;28;20092;-83
2022/01/10 11:26:18;;;;;;;0.55;0.45;;;2.60;99.90;;;;;;5014148;28;20034;-83
2022/01/10 11:28:56;;;;;;;2.28;1.65;;;2.70;99.90;;;;;;5031242;28;20107;-83
2022/01/10 11:31:26;;;;;;;1.35;0.93;;;2.80;99.90;;;;;;5015503;28;20060;-83
2022/01/10 11:34:01;;;;;;;0.70;0.70;;;2.80;99.90;;;;;;5014822;28;20091;-83
2022/01/10 11:36:28;;;;;;;0.85;0.68;;;2.90;99.90;;;;;;5030501;28;20088;-84
2022/01/10 11:39:00;;;;;;;1.33;1.23;;;2.90;99.90;;;;;;5014732;28;20091;-84
2022/01/10 11:45:37;;;;;;;0.50;0.50;;;3.00;99.90;;;;;;5011574;28;20520;-84
2022/01/10 11:48:11;;;;;;;0.40;0.40;;;3.10;99.90;;;;;;5018465;28;20041;-84
2022/01/10 11:50:44;;;;;;;0.30;0.30;;;3.20;99.90;;;;;;5030683;28;20511;-84
2022/01/10 11:53:11;;;;;;;0.50;0.50;;;3.20;99.90;;;;;;5014147;28;20132;-84
2022/01/10 11:55:51;;;;;;;1.02;0.93;;;3.30;99.90;;;;;;5014895;28;20103;-84
2022/01/10 11:58:24;;;;;;;0.40;0.40;;;3.30;99.90;;;;;;5030285;28;20087;-84
2022/01/10 12:01:31;;;;;;;0.50;0.50;;;3.40;99.90;;;;;;5030907;28;20117;-84
2022/01/10 12:03:57;;;;;;;4.07;2.78;;;3.40;99.90;;;;;;5027355;28;20033;-84
2022/01/10 12:10:06;;;;;;;1.50;1.40;;;3.50;99.90;;;;;;5018833;28;20478;-84
2022/01/10 12:12:42;;;;;;;0.35;0.35;;;3.60;99.90;;;;;;5011395;28;20073;-84
2022/01/10 12:15:22;;;;;;;1.38;1.25;;;3.70;99.90;;;;;;5010690;28;20037;-85
2022/01/10 12:17:52;;;;;;;0.57;0.47;;;3.80;99.90;;;;;;5030206;28;20042;-85
2022/01/10 12:20:18;;;;;;;0.75;0.75;;;3.80;99.90;;;;;;5030506;28;20124;-85
2022/01/10 12:22:59;;;;;;;0.40;0.40;;;4.00;99.90;;;;;;5030342;28;20479;-84
2022/01/10 12:25:26;;;;;;;0.68;0.68;;;3.90;99.90;;;;;;5030592;28;20042;-85
2022/01/10 12:28:07;;;;;;;1.85;1.13;;;3.90;99.90;;;;;;5030309;28;20044;-85
2022/01/10 12:30:34;;;;;;;2.15;1.13;;;4.00;99.90;;;;;;5030758;28;20611;-85
2022/01/10 12:33:03;;;;;;;6.47;4.10;;;4.10;99.90;;;;;;5030453;28;20041;-85
2022/01/10 12:35:28;;;;;;;1.77;0.95;;;4.10;99.90;;;;;;5047143;28;20045;-85
2022/01/10 12:37:55;;;;;;;4.07;3.70;;;4.10;99.90;;;;;;5016388;28;20068;-85
2022/01/10 12:40:22;;;;;;;1.20;1.10;;;4.20;99.90;;;;;;5050593;28;20507;-87
2022/01/10 12:42:49;;;;;;;0.55;0.47;;;4.20;99.90;;;;;;5050606;28;20116;-85
2022/01/10 12:45:20;;;;;;;1.05;0.73;;;4.20;99.90;;;;;;5049145;28;20045;-86
2022/01/10 12:47:49;;;;;;;0.30;0.30;;;4.30;99.90;;;;;;5016190;28;20041;-83
2022/01/10 12:50:16;;;;;;;1.38;1.27;;;4.30;99.90;;;;;;5016297;28;20044;-83
2022/01/10 12:52:43;;;;;;;1.55;1.05;;;4.40;99.90;;;;;;5033106;28;20132;-84
2022/01/10 12:55:11;;;;;;;1.50;1.08;;;4.40;99.90;;;;;;5033366;28;20034;-82
2022/01/10 12:57:36;;;;;;;1.65;0.73;;;4.40;99.90;;;;;;5032565;28;20041;-82
2022/01/10 13:00:05;;;;;;;0.73;0.73;;;4.40;99.90;;;;;;5016306;28;20048;-82
2022/01/10 13:02:32;;;;;;;0.50;0.50;;;4.40;99.90;;;;;;5011645;28;20038;-82
2022/01/10 13:04:58;;;;;;;2.20;1.58;;;4.40;99.90;;;;;;5032448;28;20063;-82
2022/01/10 13:07:24;;;;;;;3.15;2.30;;;4.50;99.90;;;;;;5032130;28;20037;-84
2022/01/10 13:09:58;;;;;;;1.00;0.77;;;4.50;99.90;;;;;;5015885;28;20047;-83
2022/01/10 13:12:33;;;;;;;0.30;0.30;;;4.50;99.90;;;;;;5015551;28;20051;-85
2022/01/10 13:15:12;;;;;;;2.45;0.93;;;4.50;99.90;;;;;;5032312;28;20076;-86